x

8413320 - Bar Harbor, Me (atgm1) Weather Station

12:54 - Fri 27th Mar 2015 All times are EDT. -4 hours from GMT.

  • Wind
    5mph, 6mph gusts
  • Sea Temp 33°f
  • Aire Temp 38°f
  • Sea Pressure 1004.2mb
  • 8413320 - Bar Harbor, Me
  • 8413320 - Bar Harbor, Me

More Historic Weather Station data

Upgrade to MSW Pro to gain access to the past 30 days of data for over 8000 Wavebouys and Weather Stations around the globe.

Join Pro

Comparision Forecast

View Surf forecast
   
vie 03/27 12:54 5 6 mph 1004.2mb 33f 38f
12:48 5 7 mph 1004mb - -
12:42 7 8 mph 1004.1mb 33f 38f
12:36 8 9 mph 1004.3mb 33f 38f
12:30 8 9 mph 1004.4mb 33f 38f
12:24 7 8 mph 1004.2mb 33f 38f
12:18 7 8 mph 1004.2mb 33f -
12:12 6 7 mph 1004.2mb 33f 38f
jue 03/26 11:54 5 6 mph 1004.2mb 33f 38f
11:48 6 8 mph 1004.4mb 33f 38f
11:42 6 7 mph 1004.4mb 33f 39f
11:36 2
mph
1004.1mb 33f 38f
11:30 2 3 mph 1004.4mb 33f 38f
11:24 3 5 mph 1004.7mb 33f 38f
11:18 5 6 mph 1004.7mb 33f 38f
11:12 6
mph
1004.9mb 33f 38f
11:06 6 8 mph 1005mb 33f 36f
11:00 7 8 mph 1005.2mb 33f 37f
10:54 7
mph
1004.9mb 33f 38f
10:48 6
mph
1004.9mb 33f 37f
10:42 3 5 mph 1004.7mb 33f 38f
10:36 2 3 mph 1004.4mb 33f 38f
10:30 2
mph
1004.5mb 33f 37f
10:18  -  1 mph 1004.5mb 33f 37f
10:12  -  3 mph 1004.6mb 33f 37f
10:06 3
mph
1005.2mb 33f 37f
10:00 2 3 mph 1004.9mb 33f 37f
9:48 1 2 mph 1004.7mb 33f 37f
9:42  -  1 mph 1004.5mb 33f 37f
9:36 1 2 mph 1004.9mb 33f 37f
9:30 2 3 mph 1005.3mb 33f 38f
9:24 2 3 mph 1005.4mb 33f 38f
9:18  -  mph 1005.3mb 33f 37f
9:12  -  mph 1005mb 33f 37f
9:06  -  1 mph 1005.2mb 33f 37f
9:00  -  1 mph 1005.2mb 33f 37f
8:54  -  2 mph 1005.1mb 33f 37f
8:48  -  2 mph 1005.1mb 33f 38f
8:42 2
mph
1005.3mb 33f 38f
8:36  -  2 mph 1005.3mb 33f 38f
8:30 1 2 mph 1005.3mb 33f 37f
8:24 1
mph
1005.2mb 33f 38f
8:18  -  1 mph 1005.1mb - -
8:12  -  1 mph 1005.4mb 33f 38f
8:06 1 3 mph 1005.3mb 33f 38f
8:00 2
mph
1005.2mb 33f 39f
7:54 1 2 mph 1005.2mb 33f 39f
7:48 2 3 mph 1004.7mb 33f 39f
7:42 1 5 mph 1004.6mb 33f 38f
7:36 5 6 mph 1004.6mb 34f 39f
7:30 1 5 mph 1005.2mb 33f 39f
7:24 5
mph
1005.2mb 33f 39f
7:18 2 3 mph 1005mb 33f 39f
7:12  -  2 mph 1004.6mb 33f 38f
7:06  -  2 mph 1004.4mb 33f 38f
7:00 2
mph
1004.4mb 33f 38f
6:54  -  3 mph 1004.3mb 33f 38f
6:48 3
mph
1004.6mb 33f 38f
6:42  -  mph 1004.9mb 33f 38f
6:36  -  mph 1004.7mb 34f 38f
6:30  -  2 mph 1004.6mb 34f 38f
6:24 1 2 mph 1004.8mb 34f 37f
6:18 2 3 mph 1005.1mb 34f 37f
6:12 3 5 mph 1005.4mb 34f 37f
6:06 5 6 mph 1005.7mb 34f 36f
6:00 3 6 mph 1005.7mb 34f 37f
5:54  -  2 mph 1005.3mb 34f 38f
5:48 2 3 mph 1005.2mb 34f 38f
5:42 2 3 mph 1005.5mb 34f 38f
5:36 5 6 mph 1005.7mb 34f 38f
5:30 2
mph
1005.7mb 34f 39f
5:24  -  3 mph 1005.9mb 34f 38f
5:18 5
mph
1005.5mb 34f 39f
5:12 3 7 mph 1005.5mb 34f 39f
5:06 6 8 mph 1005.6mb 34f 38f
5:00 6 7 mph 1005.5mb 34f 38f
4:54 5 8 mph 1005.9mb 35f 40f
4:48 5 9 mph - - -
4:42 8 11 mph 1006.2mb 34f 41f
4:36 3 8 mph 1006.2mb 33f 40f
4:30 1 8 mph 1005.8mb 33f 40f
4:24 6 7 mph 1005.8mb 33f 41f
4:18 5 6 mph 1006.4mb 33f 41f
4:12 2 6 mph 1006mb 33f 42f
4:06 3 5 mph 1005.9mb 33f 42f
4:00 6
mph
1006.2mb 33f 43f
3:54 7 14 mph 1006.1mb 33f 42f
3:48 11 14 mph 1006mb 33f 41f
3:42 6 10 mph 1006.7mb 33f 42f
3:36 9 13 mph 1007.1mb 33f 43f
3:30 5 10 mph 1006.9mb 33f 42f
3:24 3 9 mph 1006.7mb 33f 42f
3:18 8 16 mph 1007.2mb 33f 43f
3:12 11 16 mph 1008mb 33f 43f
3:06 11 18 mph 1008.2mb 33f 43f
3:00 13 17 mph 1007.4mb 33f 43f
2:54 7 14 mph 1007.4mb 33f 44f
2:48 8 13 mph 1007.1mb 33f 46f
2:42 7 15 mph 1006.9mb 33f 47f
2:36 9 25 mph 1007mb 33f 48f
2:30 8 10 mph 1007.3mb 33f 45f
2:24 7 9 mph 1007.2mb 33f 41f
2:18 5 8 mph 1007.1mb 33f 40f
2:12 5 6 mph 1007.4mb 33f 40f
2:06 3 5 mph 1007.7mb 33f 41f
2:00 5
mph
1007.8mb 33f 42f
1:54 5 9 mph 1007.9mb 33f 42f
1:48 7 11 mph 1007.8mb 33f 42f
1:42 8 11 mph 1007.9mb 33f 41f
1:36 5 9 mph 1008mb 33f 45f
1:30 5 11 mph 1008.1mb 33f 46f
1:24 2 6 mph 1008.3mb 33f 45f
1:18 3 5 mph 1008.4mb 33f 44f
1:12 2 5 mph 1008.6mb 33f 43f
1:06 6 8 mph 1008.9mb 33f 43f
1:00 3 7 mph 1009mb 33f 43f
12:54 7 9 mph 1009mb 33f 43f
12:48 3 5 mph 1008.9mb 33f 46f
12:42 5 13 mph 1008.8mb 33f 45f
12:36 8 13 mph 1008.9mb 33f 44f
12:30 2 10 mph 1009.4mb 33f 44f
12:24 8 15 mph 1009.7mb 33f 43f
12:18 11 16 mph 1010mb 33f 43f
12:12 9 16 mph 1009.9mb 33f 44f
12:06 7 10 mph 1009.8mb 33f 45f
12:00 6 17 mph 1009.9mb 33f 45f
11:54 6 14 mph 1010.1mb 33f 45f
11:48 9 16 mph 1010.3mb 33f 44f
11:42 6 15 mph 1010.4mb 33f 44f
11:36 7 13 mph 1010.6mb 33f 44f
11:30 3 11 mph 1010.9mb 33f 44f
11:24 2 8 mph 1011.1mb 33f 44f
11:18 6 9 mph 1011.2mb 33f 42f
11:12 6 8 mph 1011.2mb 33f 43f
11:06 6 11 mph 1011.3mb 33f 42f
11:00 8 14 mph 1011.4mb 33f 42f
10:54 9 13 mph 1011.7mb 33f 41f
10:48 8 10 mph 1011.8mb 33f 41f
10:42 7 14 mph 1011.8mb 33f 41f
10:36 5 10 mph 1011.9mb 33f 40f
10:30 8 14 mph 1011.9mb 33f 40f
10:18 8 16 mph 1011.9mb 33f 39f
10:12 6 11 mph 1011.8mb 33f 39f
10:06 7 10 mph 1011.9mb 33f 39f
10:00 7 13 mph 1012.1mb 33f 39f
9:54 8 14 mph 1012.1mb 33f 39f
9:48 11 14 mph 1012.1mb 33f 39f
9:42 10 16 mph 1012.2mb 33f 39f
9:36 10 16 mph 1012.1mb 33f 39f
9:30 9 17 mph 1012.1mb 33f 39f
9:24 14 18 mph 1012.2mb 33f 39f
9:18 10 17 mph 1012.4mb 33f 39f
9:12 11 16 mph 1012.6mb 33f 39f
9:06 7 14 mph 1012.7mb 33f 39f
9:00 11 18 mph 1012.6mb 33f 39f
8:54 8 13 mph 1012.6mb 33f 39f
8:48 9 14 mph 1012.7mb 33f 39f
8:42 8 15 mph 1012.5mb 33f 39f
8:36 10 16 mph 1012.5mb 33f 40f
8:30 7 10 mph 1012.4mb 33f 39f
8:24 11 20 mph 1012.5mb 33f 39f
8:18 6 11 mph 1012.6mb - -
8:12 9 14 mph 1012.9mb 33f 39f
8:06 8 15 mph 1013.1mb 33f 39f
8:00 7 15 mph 1013.2mb 33f 39f
7:54 8 16 mph 1013.1mb 33f 39f
7:48 8 15 mph 1013mb 33f 39f
7:42 9 16 mph 1013.2mb 33f 39f
7:36 9 15 mph 1013.3mb 33f 39f
7:30 8 11 mph 1013.3mb 33f 39f
7:24 8 15 mph 1013.2mb 33f 39f
7:18 8 14 mph 1013.2mb 33f 39f
7:12 8 20 mph 1013.3mb 33f 39f
7:06 13 17 mph 1013.4mb 33f 39f
7:00 13 18 mph 1013.4mb 33f 39f
6:54 11 16 mph 1013.3mb 33f 39f
6:48 10 18 mph 1013.4mb 33f 39f
6:42 11 21 mph 1013.4mb 33f 39f
6:36 17 22 mph 1013.4mb 33f 39f
6:30 17 24 mph 1013.5mb 33f 39f
6:24 13 25 mph 1013.7mb 33f 39f
6:18 14 26 mph 1013.7mb 33f 39f
6:12 13 25 mph 1013.9mb 33f 39f
6:06 14 23 mph 1013.7mb 33f 39f
6:00  -  mph 1013.7mb 33f 39f
5:54  -  mph 1013.7mb 33f 39f
5:48 13 20 mph 1013.8mb - -
5:42 15 23 mph 1013.9mb 33f -
5:36 13 21 mph 1014mb 33f -
5:30 10 26 mph 1014mb 33f 39f
5:24 17 25 mph 1014mb 33f 39f
5:18 14 23 mph 1014.3mb 33f 39f
5:12 9 21 mph 1014.3mb 33f 39f
5:06 11 24 mph 1014.3mb 33f 39f
5:00 9 22 mph 1014.4mb 33f 39f
4:54 10 17 mph 1014.5mb 33f 38f
4:48 13 23 mph 1014.4mb 33f 38f
4:42 13 23 mph 1014.7mb 33f 39f
4:36 16 30 mph 1014.9mb 33f 39f
4:30 11 24 mph 1015mb 33f 38f
4:24 13 24 mph 1015.1mb 33f 38f
4:18 14 23 mph 1015.2mb 33f 38f
4:12 16 23 mph 1015.3mb 33f 38f
4:06 15 20 mph 1015.3mb 33f 38f
4:00 9 20 mph 1015.4mb 33f 38f
3:54 9 17 mph 1015.3mb 33f 38f
3:48 14 24 mph 1015.3mb 33f 38f
3:42 11 25 mph 1015.5mb 33f 38f
3:36 9 22 mph 1015.6mb 33f 38f
3:30 9 22 mph 1015.9mb 33f 38f
3:24 13 24 mph 1016mb 33f 38f
3:18 13 26 mph 1016mb 33f 38f
3:12 14 25 mph 1016.1mb 33f 38f
3:06 8 20 mph 1016.2mb 33f 38f
3:00 8 22 mph 1016.2mb 33f 37f
2:54 10 24 mph 1016.4mb 33f 37f
2:48 8 16 mph 1016.5mb - -
2:30 8 22 mph 1017.1mb 33f -
2:24 14 22 mph 1017.3mb 33f 37f
2:00 13 18 mph 1018mb 33f 37f
1:54 14 22 mph 1018.2mb 33f 37f
1:48 6 15 mph 1018.2mb 33f 37f
1:42 7 15 mph 1018.3mb 33f 37f
1:36 10 20 mph 1018.4mb 33f 37f
1:30 8 18 mph 1018.5mb 33f 36f
1:24 10 29 mph 1018.5mb 33f 36f
1:18 14 26 mph 1018.4mb 33f 36f
1:12 9 24 mph 1018.5mb 33f 36f
1:06 11 21 mph 1018.4mb 33f 36f
1:00 13 26 mph 1018.7mb 33f 36f
12:54 14 23 mph 1018.9mb 33f 36f
12:48 11 29 mph 1019mb 33f 36f
12:42 15 29 mph 1019.3mb 33f 36f
12:36 13 24 mph 1019.4mb 33f 36f
12:30 18 28 mph 1019.5mb 33f 36f
12:24 10 22 mph 1019.7mb 33f 36f
12:18 11 21 mph 1019.9mb - -
12:12 13 23 mph 1020.1mb 33f 36f
12:06 15 30 mph 1020.3mb 33f 36f
12:00 16 25 mph 1020.3mb 33f 37f
mié 03/25 11:54 15 26 mph 1020.1mb 33f 37f
11:48 18 28 mph 1020.1mb 33f 38f
11:42 18 34 mph 1020.2mb 33f 38f
11:36 15 25 mph 1020.4mb 33f 38f
11:30 8 22 mph 1020.5mb 33f 38f
11:24 10 22 mph 1020.5mb 33f 39f
11:18 13 26 mph 1020.6mb 33f 38f
11:12 10 22 mph 1020.6mb 33f 38f
11:06 16 26 mph 1020.8mb 33f 38f
11:00 9 16 mph 1021.1mb 33f 38f
10:54 9 21 mph 1021.3mb 33f 38f
10:48 10 22 mph 1021.4mb 33f 38f
10:42 6 20 mph 1021.5mb 33f 38f
10:36 8 17 mph 1021.6mb 33f 37f
10:30 7 22 mph 1021.8mb 33f 37f
10:24 9 22 mph 1022.1mb 33f 37f
10:18 8 20 mph 1022.3mb 33f 37f
10:12 13 18 mph 1022.4mb 33f 37f
10:06 8 22 mph 1022.6mb 33f 37f
10:00 9 16 mph 1022.7mb 33f 37f
9:54 10 22 mph 1022.7mb 33f 36f
9:48 8 14 mph 1022.8mb 33f 36f
9:42 8 13 mph 1022.9mb 33f 36f
9:36 6 13 mph 1022.9mb 33f 36f
9:30 5 9 mph 1023mb 33f 36f
9:24 6 10 mph 1023.1mb 33f 35f
9:18 6 9 mph 1023mb 33f 35f
9:12 5 8 mph 1022.9mb 33f 35f
9:06 5 9 mph 1023mb 33f 35f
9:00 5 14 mph 1023.3mb 33f 35f
8:54 6 8 mph 1023.4mb 33f 35f
8:48 2 6 mph 1023.4mb 33f 35f
8:42 2 8 mph 1023.4mb 33f 35f
8:36 2 5 mph 1023.5mb 33f 35f
8:30 3 8 mph 1023.5mb 33f 35f
8:24 5 8 mph 1023.5mb 33f 35f
8:18 6 9 mph 1023.6mb 33f 35f
8:12 8 11 mph 1023.7mb 33f 35f
8:06 6 8 mph 1023.8mb 33f 35f
8:00 8 10 mph 1023.8mb 33f 35f
7:54 6 7 mph 1023.9mb 33f 35f
7:48 6 9 mph 1024.1mb 33f 35f
7:42 7 9 mph 1024.1mb 33f 35f
7:36 7 8 mph 1024.2mb 33f 35f
7:30 3 5 mph 1024.2mb 33f 35f
7:24 6 9 mph 1024.2mb 33f 35f
7:18 7 9 mph 1024.3mb 33f 35f
7:12 5 9 mph 1024.3mb 33f 35f
7:06 3 8 mph 1024.5mb 33f 35f
7:00 1 5 mph 1024.6mb 33f 35f
6:54 1 3 mph 1024.5mb 33f 35f
6:48 2 6 mph 1024.4mb 33f 35f
6:42 2 8 mph 1024.4mb 33f 36f
6:36 5 7 mph 1024.4mb 33f 36f
6:30 6 10 mph 1024.6mb 33f 36f
6:24 6 9 mph 1024.6mb 33f 37f
6:18 5 11 mph 1024.6mb 33f 37f
6:12 3 9 mph 1024.7mb 33f 37f
6:06 6 10 mph 1024.7mb 33f 37f
6:00 7 15 mph 1024.7mb 33f 38f
5:54 6 9 mph 1024.8mb 33f 38f
5:48 6 11 mph 1024.8mb 33f 39f
5:42 7 11 mph 1024.8mb 33f 39f
5:36 3 7 mph 1024.8mb 33f 40f
5:30 6 8 mph 1024.8mb 33f 40f
5:24 7 14 mph 1024.8mb 33f 40f
5:18 6 10 mph 1024.7mb 33f 39f
5:12 7 11 mph 1024.6mb 33f 40f
5:06 7 10 mph 1024.6mb 33f 40f
5:00 7 11 mph 1024.5mb 33f 40f
4:54 9 17 mph 1024.6mb 34f 40f
4:48 9 14 mph 1024.6mb 34f 40f
4:42 9 15 mph 1024.8mb 34f 40f
4:36 7 13 mph 1024.8mb 34f 41f
4:30 6 10 mph 1024.8mb 34f 41f
4:24 7 13 mph 1024.8mb 34f 41f
4:18 7 11 mph 1024.9mb 34f 41f
4:12 6 13 mph 1025mb 34f 41f
4:06 10 15 mph 1025mb 34f 40f
4:00 8 15 mph 1025.1mb 34f 41f
3:54 9 15 mph 1025.2mb 34f 41f
3:48 8 14 mph 1025.3mb 34f 42f
3:42 5 11 mph 1025.4mb 34f 42f
3:36 6 13 mph 1025.5mb 34f 42f
3:30 7 11 mph 1025.5mb 34f 42f
3:24 5 13 mph 1025.5mb 33f 42f
3:18 6 10 mph 1025.4mb 33f 43f
3:12 7 13 mph 1025.4mb 33f 42f
3:06 3 13 mph 1025.6mb 33f 43f
3:00 5 10 mph 1025.7mb 33f 43f
2:54 5 9 mph 1025.7mb 33f 43f
2:48 9 13 mph 1025.7mb 33f 43f
2:36 8 15 mph 1026.1mb 33f 40f
2:30 8 15 mph 1026.2mb 33f 39f
2:24 9 13 mph 1026.3mb 33f 38f
2:18 11 13 mph 1026.5mb 33f 38f
2:12 10 14 mph 1026.7mb 33f 37f
2:06 9 13 mph 1026.8mb 33f 37f
2:00 10 15 mph 1026.8mb 32f 36f
1:54 13 16 mph 1026.8mb 32f 36f
1:48 11 16 mph 1026.9mb 32f 36f
1:42 11 15 mph 1027.1mb 32f 36f
1:36 10 13 mph 1027.2mb 32f 38f
1:30 9 13 mph 1027.3mb 32f 37f
1:24 10 13 mph 1027.3mb 32f 37f
1:18 8 11 mph - - -
1:12 8 10 mph 1027.5mb 32f 37f
1:06 9 10 mph 1027.5mb 32f 36f
1:00 7 9 mph 1027.4mb 32f 37f
12:54 8 9 mph 1027.4mb 32f 37f
12:48 9 11 mph 1027.4mb 32f 35f
12:42 8 10 mph 1027.4mb 32f 36f
12:36 8 10 mph 1027.5mb 32f 36f
12:30 9 10 mph 1027.5mb 32f 36f
12:24 9 10 mph 1027.7mb 32f 35f
12:18 9 10 mph 1027.8mb 32f 35f
12:12 7 8 mph 1027.9mb 32f 36f
12:06 6 8 mph 1028mb 32f 36f
12:00 7 11 mph 1028.2mb 32f 35f
11:54 9 11 mph 1028.1mb 32f 34f
11:48 8 9 mph 1028.1mb 32f 34f
11:42 5 6 mph 1028.2mb 32f 35f
11:36 2 3 mph 1028.3mb 32f 35f
11:30 3 5 mph 1028.3mb 32f 34f
11:24  -  1 mph 1028.3mb 32f 37f
11:18  -  2 mph 1028.4mb 32f 36f
11:12 1 3 mph 1028.5mb 32f 35f
11:06 2 5 mph 1028.6mb 32f 35f
11:00 3 5 mph 1028.7mb 32f 34f
10:54 3 5 mph 1028.7mb 32f 34f
10:48 3 5 mph 1028.8mb 32f 34f
10:42 3 5 mph 1028.7mb 32f 33f
10:36 2 5 mph 1028.6mb 32f 32f
10:30 3 5 mph 1028.6mb 32f 32f
10:24 3 6 mph 1028.7mb 32f 33f
10:18 5 6 mph 1028.7mb 32f 32f
10:12 5 7 mph 1028.7mb 32f 32f
10:06 5 7 mph 1028.7mb 31f 31f
10:00 6 7 mph 1028.6mb 31f 31f
9:54 5 6 mph 1028.7mb 31f 31f
9:48 6 7 mph 1028.7mb 31f 30f
9:42 6 7 mph 1028.6mb 31f 30f
9:36 6 7 mph 1028.6mb 31f 29f
9:30 6 7 mph 1028.6mb 31f 29f
9:24 5 6 mph 1028.6mb 31f 30f
9:18 6 7 mph 1028.6mb 31f 30f
9:12 6 7 mph 1028.6mb 31f 30f
9:06 6 7 mph 1028.6mb 31f 29f
9:00 5 7 mph 1028.7mb 31f 29f
8:54 5 6 mph 1028.6mb 31f 29f
8:48 6 8 mph 1028.6mb 31f 29f
8:42 7 9 mph 1028.6mb 31f 29f
8:36 9
mph
1028.5mb 31f 29f
8:30 8 10 mph 1028.5mb 31f 29f
8:24 8 10 mph 1028.5mb 31f 29f
8:18 9 10 mph 1028.6mb 31f 29f
8:12 7 8 mph 1028.5mb 31f 28f
8:06 7 8 mph 1028.5mb 31f 28f
8:00 6 7 mph 1028.4mb 31f 28f
7:54 6 7 mph 1028.3mb 31f 28f
7:48 6 7 mph 1028.3mb 31f 28f
7:42 6
mph
1028.2mb 31f 27f
7:36 6 7 mph 1028.2mb 31f 27f
7:30 6
mph
1028.2mb 31f 27f
7:24 6
mph
1028.1mb 31f 27f
7:18 6 8 mph 1028mb 31f 27f
7:12 6 8 mph 1027.9mb 31f 27f
7:06 8 9 mph 1027.9mb 31f 27f
7:00 8 9 mph 1027.9mb 31f 27f
6:54 9 10 mph 1027.8mb 32f 27f
6:48 8 10 mph 1027.8mb 32f 27f
6:42 7 10 mph 1027.7mb 32f 27f
6:36 8 10 mph 1027.7mb 32f 27f
6:30 8 11 mph 1027.7mb 32f 27f
6:24 8 10 mph 1027.6mb 32f 27f
6:18 8 9 mph 1027.6mb 32f 27f
6:12 8 10 mph 1027.6mb 32f 28f
6:06 8 10 mph 1027.5mb 32f 27f
6:00 9 11 mph 1027.4mb 32f 28f
5:54 8 11 mph 1027.3mb 32f 28f
5:48 8 10 mph 1027.3mb 32f -
5:42 7 10 mph 1027.2mb 32f -
5:36 8 10 mph 1027.1mb 32f -
5:30 7 9 mph 1027mb 32f 28f
5:24 7 8 mph 1026.9mb 32f 28f
5:18 6 8 mph 1026.8mb 32f 28f
5:12 5 7 mph 1026.8mb 32f 28f
5:06 6 7 mph 1026.8mb 32f 28f
5:00 6 7 mph 1026.9mb 32f 28f
4:54 6 7 mph 1026.8mb 32f 28f
4:48 5 6 mph 1026.7mb 32f 28f
4:42 5 6 mph 1026.7mb 32f 28f
4:36 5 6 mph 1026.6mb 32f 28f
4:30 5 6 mph 1026.6mb 32f 28f
4:24 3 5 mph 1026.6mb 32f 28f
4:18 3 6 mph 1026.7mb 32f 28f
4:12 3 5 mph 1026.7mb 32f 28f
4:06 5 6 mph 1026.6mb 32f 27f
4:00 6 7 mph 1026.6mb 32f 28f
3:54 6 7 mph 1026.5mb 32f 28f
3:48 6 7 mph 1026.5mb 32f 28f
3:42 6
mph
1026.4mb 32f 28f
3:36 5 6 mph 1026.3mb 32f 29f
3:30 3 7 mph 1026.2mb 32f 29f
3:24 5 7 mph 1026.2mb 32f 29f
3:18 5 7 mph 1026.2mb 32f 29f
3:12 5 6 mph 1026.1mb 32f 30f
3:06 6 7 mph 1026mb 32f 30f
3:00 5 6 mph 1026.1mb 32f 29f
2:54 3 5 mph 1026.2mb 32f 29f
2:48 2 3 mph 1026.3mb 32f 29f
2:42 2 3 mph 1026.2mb 32f 30f
2:36 2 5 mph 1026.2mb 32f 30f
2:30 5 6 mph 1026.3mb 32f 30f
2:24 5 7 mph 1026.3mb 32f 30f
2:18 5 7 mph 1026.3mb 32f 31f
2:12 6 8 mph 1026.3mb 32f 31f
2:06 7 9 mph 1026.2mb 32f 31f
2:00 8 9 mph 1026.2mb 32f 31f
1:54 8 10 mph 1026.1mb 32f 31f
1:48 8 11 mph 1026.1mb 32f 31f
1:42 8 10 mph 1026.1mb 32f 31f
1:36 6 8 mph 1026.1mb 32f 31f
1:30 6 8 mph 1026.1mb 32f 31f
1:24 5 6 mph 1026mb 32f 31f
1:18 2 5 mph 1026mb 32f 31f
1:12 2 5 mph 1025.9mb 32f 31f
1:06 2 7 mph 1025.9mb 32f 31f
1:00 6 7 mph 1025.8mb 32f 32f
12:54 6 8 mph 1025.7mb 32f 32f
12:48 2 11 mph 1025.6mb 32f 32f
12:42 7 10 mph 1025.5mb 32f 31f
12:36 8 13 mph 1025.5mb 32f 31f
12:30 8 16 mph 1025.4mb 32f 31f
12:24 11 15 mph 1025.4mb 32f 31f
12:18 10 16 mph 1025.4mb 32f 31f
12:12 8 13 mph 1025.4mb 32f 31f
12:06 11 16 mph 1025.4mb 32f 31f
12:00 13 17 mph 1025.3mb 32f 31f
mar 03/24 11:54 11 16 mph 1025.4mb 32f 31f
11:48 11 15 mph 1025.4mb 32f 31f
11:42 10 15 mph 1025.3mb 32f 31f
11:36 11 16 mph 1025.3mb 32f 31f
11:30 13 15 mph 1025.2mb 32f 31f
11:24 13 16 mph 1025.2mb 32f 31f
11:18 11 16 mph 1025.2mb 32f 31f
11:12 11 15 mph 1025.2mb 32f 31f
11:06 10 16 mph 1025.2mb 32f 31f
11:00 13 16 mph 1025.2mb 32f 31f
10:54 10 14 mph 1025.2mb 32f 31f
10:48 11 17 mph 1025.2mb 32f 31f
10:42 10 17 mph 1025.2mb 32f 31f
10:36 10 17 mph 1025.2mb 32f 31f
10:30 13 16 mph 1025.1mb 32f 31f
10:24 13 16 mph 1025.1mb 32f 31f
10:18 11 15 mph 1025.2mb 32f 31f
10:12 11 15 mph 1025.2mb 32f 31f
10:06 10 15 mph 1025.2mb 32f 31f
10:00 10 14 mph 1025.2mb 32f 31f
9:54 10 14 mph 1025.1mb 32f 32f
9:48 11 14 mph 1025.1mb 32f 32f
9:42 11 15 mph 1025.1mb 32f 32f
9:36 11 14 mph 1025.1mb 32f 32f
9:30 10 14 mph 1025.1mb 32f 33f
9:24 11 15 mph 1025.1mb 32f 33f
9:18 10 14 mph 1025.1mb 32f 33f
9:12 11 15 mph 1025.1mb 32f 33f
9:06 10 15 mph 1025.1mb 32f 33f
9:00 11 15 mph 1025.1mb 32f 33f
8:54 11 14 mph 1025.1mb 32f 33f
8:48 10 14 mph 1025mb 32f 33f
8:42 10 14 mph 1025mb 32f 33f
8:36 10 14 mph 1024.9mb 32f 33f
8:30 10 14 mph 1024.8mb 32f 33f
8:24 10 14 mph 1024.8mb 32f 33f
8:18 11 14 mph 1024.8mb 32f 33f
8:12 10 14 mph 1024.8mb 32f 33f
8:06 10 16 mph 1024.7mb 32f 33f
8:00 10 14 mph 1024.6mb 32f 33f
7:54 13 15 mph 1024.6mb 32f 33f
7:48 11 14 mph 1024.4mb 32f 33f
7:42 10 14 mph 1024.4mb 32f 33f
7:36 10 14 mph 1024.3mb 32f 33f
7:30 10 13 mph 1024.3mb 32f 34f
7:24 8 11 mph 1024.2mb 32f 34f
7:18 8 11 mph 1024.2mb 32f 34f
7:12 8 10 mph 1024.2mb 32f 35f
7:06 8 10 mph 1024.1mb 32f 35f
7:00 6 8 mph 1024.1mb 32f 36f
6:54 5 7 mph 1024mb 32f 36f
6:48 6 8 mph 1023.9mb 32f 37f
6:42 5 6 mph 1023.8mb 32f 37f
6:36 5 6 mph 1023.8mb 32f 37f
6:30 3 7 mph 1023.8mb 32f 37f
6:24 6 8 mph 1023.7mb 32f 37f
6:18 5 7 mph 1023.7mb 32f 38f
6:12 5 8 mph 1023.6mb 32f 38f
6:06 6 9 mph 1023.6mb 32f 37f
6:00 7
mph
1023.6mb 32f 37f
5:54 6 8 mph 1023.5mb 32f 38f
5:48 8 10 mph 1023.5mb 32f 37f
5:42 7 8 mph 1023.4mb 32f 38f
5:36 7 8 mph 1023.4mb 32f 38f
5:30 6 9 mph 1023.4mb 32f 38f
5:24 6 8 mph 1023.4mb 32f 37f
5:18 7 9 mph 1023.4mb 32f 38f
5:12 8 9 mph 1023.4mb 32f 38f
5:06 8 10 mph 1023.4mb 32f 38f
5:00 9 10 mph 1023.4mb 32f 37f
4:54 8 9 mph 1023.4mb 32f 37f
4:48 9 11 mph 1023.3mb 32f 37f
4:42 7 10 mph 1023.3mb 32f 37f
4:36 8 9 mph 1023.4mb 32f 37f
4:30 7 9 mph 1023.4mb 32f 37f
4:24 9 11 mph 1023.4mb 32f 37f
4:18 7 11 mph 1023.4mb 32f 37f
4:12 10 13 mph 1023.4mb 32f 37f
4:06 9 13 mph 1023.4mb 32f 36f
4:00 9 11 mph 1023.4mb 32f 36f
3:54 9 11 mph 1023.4mb 32f 36f
3:48 9 11 mph 1023.4mb 32f 36f
3:42 10 11 mph 1023.5mb 32f 36f
3:36 9 11 mph 1023.6mb 32f 36f
3:30 9 11 mph 1023.6mb 32f 35f
3:24 8 11 mph 1023.5mb 32f 35f
3:18 7 10 mph 1023.6mb 32f 35f
3:12 8 10 mph 1023.6mb 32f 35f
3:06 7 8 mph 1023.7mb 32f 35f
3:00 7 9 mph 1023.7mb 32f 35f
2:54 7 8 mph 1023.7mb 32f 35f
2:48 6 9 mph 1023.8mb 31f 35f
2:42 7 9 mph 1023.8mb 31f 34f
2:36 7 9 mph 1023.8mb 31f 34f
2:30 6 9 mph 1023.9mb 31f 34f
2:24 8 10 mph 1023.9mb 31f 34f
2:18 5 8 mph 1024mb 31f 34f
2:12 6 8 mph 1023.9mb 31f 33f
2:06 7 8 mph 1024mb 31f 33f
2:00 6 8 mph 1024.1mb 31f 33f
1:54 6 8 mph 1024.1mb 31f 33f
1:48 6 7 mph 1024.1mb 31f 32f
1:42 3 7 mph 1024.2mb 31f 32f
1:36 5 8 mph 1024.2mb 31f 32f
1:30 6 7 mph 1024.2mb 31f 32f
1:24 6 7 mph 1024.3mb 31f 31f
1:18 6 8 mph 1024.4mb 31f 31f
1:12 9 11 mph 1024.4mb 31f 31f
1:06 7 11 mph 1024.5mb 31f 31f
1:00 6 8 mph 1024.5mb 31f 31f
12:54 8 10 mph 1024.6mb 31f 31f
12:48 6 7 mph 1024.6mb 31f 30f
12:42 6 7 mph 1024.7mb 31f 30f
12:36 6 8 mph 1024.7mb 31f 30f
12:30 6 7 mph 1024.8mb 31f 29f
12:24 7 9 mph 1024.8mb 31f 29f
12:18 7 10 mph 1024.9mb 31f 29f
12:12 6
mph
1024.9mb 31f 29f
12:06 5 7 mph 1025mb 31f 29f
12:00 5 6 mph 1025.1mb 31f 29f
11:54 6 7 mph 1025.1mb 31f 28f
11:48 6 8 mph 1025.2mb 31f 28f
11:42 5 7 mph 1025.3mb 31f 28f
11:36 5 7 mph 1025.3mb 31f 28f
11:24 5 9 mph 1025.4mb 31f 27f
11:18 7 8 mph 1025.4mb 31f 27f
11:12 7 9 mph 1025.3mb 31f 26f
11:06 8 10 mph 1025.3mb 30f 26f
11:00 7 8 mph 1025.4mb 30f 26f
10:54 7 10 mph 1025.4mb 30f 26f
10:48 7 11 mph 1025.4mb 30f 26f
10:42 8 13 mph 1025.4mb 30f 25f
10:36 9 14 mph 1025.4mb 30f 25f
10:30 9 13 mph 1025.3mb 30f 25f
10:24 9 13 mph 1025.4mb 30f 24f
10:18 8 11 mph 1025.3mb 30f 24f
10:12 7 10 mph 1025.4mb 30f 24f
10:06 6 10 mph 1025.4mb 30f 24f
10:00 6 10 mph 1025.4mb 30f 23f
9:54 6 11 mph 1025.4mb 30f 23f
9:48 9 13 mph 1025.3mb 30f 22f
9:42 9 14 mph 1025.3mb 30f 22f
9:36 10 14 mph 1025.3mb 30f 22f
9:30 9 13 mph 1025.3mb 30f 21f
9:24 9 13 mph 1025.4mb 30f 21f
9:18 9 11 mph 1025.4mb 30f 20f
9:12 10 11 mph 1025.4mb 29f 20f
9:06 11 14 mph 1025.4mb 29f 20f
9:00 10 14 mph 1025.4mb 29f 20f
8:54 10 13 mph 1025.5mb 29f 20f
8:48 9 13 mph 1025.5mb 29f 20f
8:42 9 13 mph 1025.5mb 29f 19f
8:36 10 11 mph 1025.5mb 29f 19f
8:30 10 11 mph 1025.5mb 29f 19f
8:24 10 11 mph 1025.4mb 29f 19f
8:18 9 14 mph 1025.4mb 29f 19f
8:12 10 13 mph 1025.4mb 30f 19f
8:06 10 13 mph 1025.3mb 30f 19f
8:00 11 13 mph 1025.3mb 30f 18f
7:54 9 14 mph 1025.2mb 30f 18f
7:48 10 13 mph 1025.1mb 30f 18f
7:42 11 14 mph 1025mb 30f 18f
7:36 10 11 mph 1025mb 30f 18f
7:24 10 13 mph 1025mb 30f 18f
7:18 10 13 mph 1024.9mb 30f 17f
7:12 11 13 mph 1024.8mb 30f 17f
7:06 10 14 mph 1024.8mb 30f 18f
7:00 9 11 mph 1024.8mb 30f 17f
6:54 8 10 mph 1024.7mb 30f 17f
6:48 8 11 mph 1024.7mb 30f 17f
6:42 8 14 mph 1024.6mb 30f 17f
6:36 9 14 mph 1024.5mb 30f 17f
6:30 11 14 mph 1024.5mb 30f 17f
6:24 9 14 mph 1024.4mb 30f 17f
6:18 9 14 mph 1024.3mb 30f 17f
6:12 11 14 mph 1024.2mb 30f 17f
6:06 11 15 mph 1024.2mb 30f 17f
6:00 11 15 mph 1024.1mb 30f 17f
5:54  -  mph 1024.1mb 30f 17f
5:48  -  mph 1024.1mb 30f -
5:42 10 14 mph 1024mb 30f -
5:36 10 14 mph 1024mb 30f -
5:30 10 14 mph 1023.9mb 30f 17f
5:24 10 14 mph 1023.8mb 30f 17f
5:18 10 15 mph 1023.8mb 30f 17f
5:12 11 16 mph 1023.6mb 30f 17f
5:06 10 14 mph 1023.5mb 30f 17f
5:00 11 14 mph 1023.4mb 30f 18f
4:54 10 14 mph 1023.3mb 30f 18f
4:48 10 15 mph 1023.3mb 30f 18f
4:42 8 13 mph 1023.2mb 30f 17f
4:36 11 14 mph 1023.1mb 30f 18f
4:30 9 13 mph 1023.1mb 30f 17f
4:24 9 15 mph 1023mb 30f 18f
4:18 11 16 mph 1023mb 30f 17f
4:12 11 15 mph 1023mb 30f 18f
4:06 11 16 mph 1023mb 30f 18f
3:54 10 18 mph 1022.9mb 30f 18f
3:48 13 16 mph 1022.9mb 30f 18f
3:42 10 14 mph 1022.9mb 30f 18f
3:36 8 14 mph 1022.9mb 30f 18f
3:30 10 18 mph 1022.8mb 30f 18f
3:24 11 14 mph 1022.8mb 30f 18f
3:18 14 17 mph 1022.8mb 30f 18f
3:12 10 16 mph 1022.8mb 30f 18f
3:06 11 15 mph 1022.7mb 30f 18f
3:00 14 16 mph 1022.7mb 30f 18f
2:54 13 16 mph 1022.7mb 30f 18f
2:48 13 16 mph 1022.8mb 30f 18f
2:42 13 16 mph 1022.8mb 30f 18f
2:36 8 13 mph 1022.8mb 30f 18f
2:30 9 17 mph 1022.7mb 30f 18f
2:24 10 16 mph 1022.7mb 30f 18f
2:18 13 17 mph 1022.7mb 30f 18f
2:12 9 16 mph 1022.7mb 30f 17f
2:06 9 13 mph 1022.6mb 30f 17f
2:00 9 16 mph 1022.5mb 30f 17f
1:54 10 15 mph 1022.4mb 30f 17f
1:48 10 16 mph 1022.5mb 30f 17f
1:42 9 14 mph 1022.4mb 30f 17f
1:36 8 13 mph 1022.4mb 30f 17f
1:30 10 14 mph 1022.5mb 30f 17f
1:24 13 16 mph 1022.4mb 30f 17f
1:18 11 13 mph 1022.4mb 30f 17f
1:12 13 15 mph 1022.3mb 30f 17f
1:06 13 17 mph 1022.2mb 30f 18f
1:00 14 15 mph 1022.2mb 31f 18f
12:54 13 16 mph 1022.3mb 31f 17f
12:48 11 14 mph 1022.1mb 31f 18f
12:42 11 15 mph 1022.2mb 31f 18f
12:36 13 15 mph 1022.1mb 31f 18f
12:30 11 14 mph 1022.1mb 31f 18f
12:24 11 15 mph 1022.1mb 31f 18f
12:18 10 14 mph 1022mb 31f 18f
12:12 8 14 mph 1022mb 31f 18f
12:06 11 17 mph 1021.8mb 31f 18f
12:00 13 16 mph 1021.9mb 31f 19f
lun 03/23 11:54 14 17 mph 1021.8mb 31f 19f
11:48 14 18 mph 1021.8mb 31f 18f
11:42 13 16 mph 1021.8mb 31f 18f
11:36 9 14 mph 1021.9mb 31f 18f
11:30 9 11 mph 1021.8mb 31f 18f
11:24 8 10 mph 1021.8mb 31f 18f
11:18 8 13 mph 1021.8mb 31f 19f
11:12 10 15 mph 1021.8mb 31f 19f
11:06 14 16 mph 1021.7mb 31f 20f
11:00 13 16 mph 1021.7mb 31f 20f
10:54 13 15 mph 1021.6mb 31f 20f
10:48 14 17 mph 1021.6mb 31f 20f
10:42 11 16 mph 1021.5mb 31f 20f
10:36 14 17 mph 1021.4mb 31f 20f
10:30 14 17 mph 1021.4mb 31f 20f
10:24 14 17 mph 1021.4mb 31f 20f
10:18 14 20 mph 1021.3mb 30f 20f
10:12 15 20 mph 1021.2mb 30f 20f
10:06 16 18 mph 1021.1mb 30f 21f
10:00 17 18 mph 1021.1mb 30f 21f
9:54 16 21 mph 1021mb 30f 21f
9:48 16 20 mph 1020.9mb 30f 21f
9:42 16 18 mph 1020.9mb 30f 21f
9:36 16 20 mph 1020.8mb 30f 21f
9:30 15 18 mph 1020.8mb 30f 22f
9:24 16 21 mph 1020.6mb 30f 22f
9:18 16 21 mph 1020.6mb 30f 22f
9:12 17 20 mph 1020.5mb 30f 22f
9:06 16 20 mph 1020.4mb 30f 22f
9:00 18 20 mph 1020.4mb 30f 22f
8:54 17 21 mph 1020.3mb 30f 22f
8:48 17 22 mph 1020.2mb 30f 22f
8:42 17 21 mph 1020.2mb 30f 22f
8:36 15 20 mph 1020.1mb 30f 23f
8:30 15 21 mph 1019.9mb 30f 23f
8:24 15 20 mph 1019.8mb 30f 23f
8:18 15 18 mph 1019.7mb 30f 23f
8:12 20 22 mph 1019.5mb 30f 23f
8:06 18 22 mph 1019.4mb 30f 23f
8:00 16 22 mph 1019.3mb 30f 23f
7:54 17 22 mph 1019.1mb 30f 23f
7:48 16 20 mph 1018.8mb 30f 23f
7:42 16 22 mph 1018.6mb 30f 23f
7:36 17 23 mph 1018.5mb 30f 24f
7:30 18 23 mph 1018.3mb 30f 24f
7:24 16 21 mph 1018.2mb 30f 24f
7:18 16 22 mph 1018mb 30f 24f
7:12 18 22 mph 1017.9mb 30f 24f
7:06 15 21 mph 1017.8mb 30f 24f
7:00 16 21 mph 1017.6mb 30f 24f
6:54 17 22 mph 1017.5mb 30f 24f
6:48 21 25 mph 1017.4mb 30f 24f
6:42 18 24 mph 1017.3mb 30f 25f
6:36 18 21 mph 1017.1mb 30f 25f
6:30 17 23 mph 1017mb 30f 25f
6:24 18 25 mph 1016.9mb 30f 25f
6:18 17 22 mph 1016.7mb 30f 25f
6:12 20 22 mph 1016.6mb 30f 25f
6:06 16 21 mph 1016.4mb 30f 25f
6:00 16 20 mph 1016.4mb 30f 25f
5:54 16 20 mph 1016.3mb 30f 25f
5:48 18 22 mph 1016.1mb 30f 25f
5:42 18 24 mph 1016mb 30f 25f
5:36 18 24 mph 1015.9mb 30f 25f
5:30 20 25 mph 1015.8mb 30f 25f
5:24 18 23 mph 1015.6mb 30f 25f
5:12 16 22 mph 1015.4mb 30f 25f
5:00 15 21 mph 1015.1mb 30f 25f
4:54 18 22 mph 1015.1mb 30f 24f
4:48 20 22 mph 1014.9mb 30f 24f
4:42 20 23 mph 1014.9mb 30f 24f
4:36 18 22 mph 1014.8mb 30f 24f
4:30 15 21 mph 1014.8mb 30f 24f
4:24 16 21 mph 1014.7mb 30f 24f
4:18 16 23 mph 1014.7mb 30f 23f
4:12 15 20 mph 1014.6mb 30f 23f
4:06 16 22 mph 1014.5mb 30f 23f
4:00 16 22 mph 1014.6mb 30f 22f
3:54 15 23 mph 1014.6mb 30f 22f
3:48 11 22 mph 1014.5mb 30f 22f
3:42 15 23 mph 1014.6mb 30f 22f
3:36 17 21 mph 1014.5mb 30f 22f
3:30 17 22 mph 1014.4mb 30f 22f
3:24 18 23 mph 1014.4mb 30f 21f
3:18 14 20 mph 1014.5mb 30f 21f
3:12 17 21 mph 1014.6mb 30f 21f
3:06 15 21 mph 1014.6mb 30f 21f
3:00 15 20 mph 1014.5mb 30f 21f
2:54 15 24 mph 1014.4mb 30f 20f
2:48 18 25 mph 1014.4mb 30f 20f
2:42 21 23 mph 1014.4mb 30f 20f
2:36 22 25 mph 1014.4mb 30f 19f
2:30 20 25 mph 1014.5mb 30f 19f
2:24 17 23 mph 1014.6mb 30f 19f
2:18 17 23 mph 1014.5mb 30f 19f
2:12 16 21 mph 1014.5mb 30f 18f
2:06 15 23 mph 1014.5mb 30f 19f
2:00 18 26 mph 1014.4mb 30f 18f
1:54 20 25 mph 1014.6mb 30f 18f
1:48 22 25 mph 1014.6mb 30f 18f
1:42 22 26 mph 1014.6mb 30f 18f
1:36 20 25 mph 1014.6mb 30f 18f
1:30 22 29 mph 1014.6mb 30f 17f
1:24 22 25 mph 1014.4mb 30f 17f
1:18 23 26 mph 1014.4mb 30f 17f
1:12 21 26 mph 1014.4mb 30f 17f
1:06 20 23 mph 1014.3mb 30f 17f
1:00 21 25 mph 1014.4mb 30f 18f
12:54 22 26 mph 1014.5mb 30f 17f
12:48 20 28 mph 1014.3mb 30f 17f
12:42 21 29 mph 1014.4mb 30f 16f
12:36 21 28 mph 1014.3mb 30f 17f
12:30 25 29 mph 1014.2mb 29f 16f
12:24 20 25 mph 1014.2mb 29f 16f
12:18 21 29 mph 1014.1mb 29f 16f
12:12 24 33 mph 1014.1mb 29f 15f
12:06 22 31 mph 1014.1mb 30f 15f
12:00 25 29 mph 1014mb 30f 15f
11:54 24 29 mph 1014mb 30f 15f
11:48 23 31 mph 1014.1mb 30f 15f
11:42 25 31 mph 1013.9mb 30f 15f
11:36 24 31 mph 1013.9mb 30f 15f
11:30 24 32 mph 1013.9mb 30f 15f
11:24 23 32 mph 1013.9mb 30f 14f
11:18 24 33 mph 1014mb 30f 14f
11:12 25 33 mph 1013.9mb 30f 14f
11:06 29 36 mph 1013.9mb 30f 14f
11:00 25 33 mph 1013.8mb 30f 14f
10:54 22 34 mph 1013.8mb 30f 14f
10:48 24 32 mph 1013.7mb 30f 14f
10:42 24 30 mph 1013.7mb 30f 13f
10:36 25 29 mph 1013.9mb 30f 13f
10:30 22 28 mph 1013.8mb 30f 13f
10:24 25 29 mph 1013.8mb 30f 13f
10:18 21 28 mph 1013.7mb 30f 13f
10:12 24 29 mph 1013.7mb 30f 13f
10:06 24 32 mph 1013.6mb 30f 12f
10:00 25 32 mph 1013.6mb 29f 12f
9:54 25 31 mph 1013.7mb 29f 12f
9:48 24 31 mph 1013.6mb 29f 12f
9:42 25 30 mph 1013.5mb 29f 11f
9:36 22 28 mph 1013.4mb 29f 12f
9:30 22 28 mph 1013.4mb 29f 12f
9:24 26 31 mph 1013.3mb 29f 11f
9:18 23 29 mph 1013.3mb 30f 11f
9:12 21 28 mph 1013.4mb 31f 11f
9:06 17 26 mph 1013.3mb 31f 11f
9:00 20 30 mph 1013.3mb 31f 11f
8:54 24 31 mph 1013.3mb 31f 11f
8:48 21 32 mph 1013.3mb 31f 10f
8:42 23 34 mph 1013.3mb 31f 11f
8:36 25 33 mph 1013.3mb 31f 10f
8:30 26 32 mph 1013.3mb 31f 10f
8:24 24 33 mph 1013.3mb 31f 10f
8:18 24 31 mph 1013.1mb 31f 10f
8:12 20 32 mph 1013.1mb 31f 10f
8:06 24 31 mph 1013.1mb 31f 10f
8:00 18 29 mph 1013.1mb 30f 11f
7:54 18 24 mph 1013.2mb 31f 10f
7:48 16 25 mph 1013.3mb 31f 10f
7:42 20 28 mph 1013.2mb 31f 10f
7:36 15 23 mph 1013.1mb 31f 10f
7:30 16 28 mph 1013mb 31f 10f
7:24 13 32 mph 1013mb 31f 10f
7:18 22 32 mph 1013mb 31f 10f
7:12 16 25 mph 1012.9mb 31f 10f
7:06 21 29 mph 1012.8mb 31f 10f
7:00 21 26 mph 1012.8mb 31f 10f
6:54 20 29 mph 1012.7mb 31f 10f
6:48 20 29 mph 1012.6mb 31f 10f
6:42 18 29 mph 1012.5mb 31f 10f
6:36 23 33 mph 1012.4mb 31f 10f
6:30 20 30 mph 1012.5mb 31f 10f
6:24 22 29 mph 1012.4mb 31f 10f
6:18 20 30 mph 1012.3mb 31f 10f
6:12 23 33 mph 1012.2mb 31f 10f
6:06 18 25 mph 1012.2mb 31f 10f
6:00 17 26 mph 1012.2mb 31f 10f
5:54 23 32 mph 1012.1mb 31f 11f
5:48 16 28 mph 1012.1mb 31f 11f
5:42 17 29 mph 1012mb 31f 11f